Time;durP1;ratioP1;P1;durP2;ratioP2;P2;SDS_P1;SDS_P2;PMS_P1;PMS_P2;Temp;Humidity;BMP_temperature;BMP_pressure;BME280_temperature;BME280_humidity;BME280_pressure;Samples;Min_cycle;Max_cycle;Signal;HPM_P1;HPM_P2
2023/03/04 00:01:27;;;;;;;29.63;23.73;;;;;;;7.51;100.00;-10399.75;5111714;28;20183;-59
2023/03/04 00:03:54;;;;;;;30.53;23.07;;;;;;;7.63;100.00;-10401.09;5111924;28;20187;-61
2023/03/04 00:06:21;;;;;;;33.37;22.87;;;;;;;7.66;100.00;-10401.53;5111627;28;20185;-61
2023/03/04 00:08:48;;;;;;;32.23;24.63;;;;;;;7.62;100.00;-10401.03;5111855;28;20180;-59
2023/03/04 00:11:15;;;;;;;34.53;24.17;;;;;;;7.53;100.00;-10716.91;5111589;28;20187;-60
2023/03/04 00:13:41;;;;;;;30.07;24.30;;;;;;;7.53;100.00;-10716.91;5111911;28;20195;-61
2023/03/04 00:16:10;;;;;;;33.53;24.07;;;;;;;7.46;100.00;-10399.16;5111764;28;20617;-59
2023/03/04 00:18:37;;;;;;;35.43;25.33;;;;;;;7.42;100.00;-10398.63;5111905;28;20580;-60
2023/03/04 00:21:04;;;;;;;32.13;24.23;;;;;;;7.35;100.00;-10397.91;5111433;28;20183;-60
2023/03/04 00:23:31;;;;;;;32.07;23.60;;;;;;;7.12;100.00;-10395.09;5111584;28;20236;-60
2023/03/04 00:25:58;;;;;;;38.77;26.13;;;;;;;7.30;100.00;-9763.53;5111810;28;20203;-60
2023/03/04 00:28:25;;;;;;;34.60;26.03;;;;;;;7.26;100.00;-9763.09;5111466;28;20183;-60
2023/03/04 00:30:52;;;;;;;36.60;25.60;;;;;;;7.15;100.00;-9761.91;5111803;28;20606;-60
2023/03/04 00:33:20;;;;;;;32.37;25.17;;;;;;;7.33;100.00;-9446.94;5111706;28;20199;-61
2023/03/04 00:35:47;;;;;;;35.47;25.97;;;;;;;7.47;100.00;-9448.38;5111700;28;20207;-61
2023/03/04 00:38:13;;;;;;;37.83;25.53;;;;;;;7.43;100.00;-9130.97;5111301;28;20202;-61
2023/03/04 00:40:40;;;;;;;39.47;27.47;;;;;;;7.41;100.00;-8813.72;5111574;28;20609;-60
2023/03/04 00:43:07;;;;;;;32.27;25.47;;;;;;;7.35;100.00;-8813.22;5111279;28;20190;-60
2023/03/04 00:45:34;;;;;;;40.13;27.17;;;;;;;7.39;100.00;-9447.53;5111329;28;20180;-60
2023/03/04 00:48:01;;;;;;;43.10;27.53;;;;;;;7.41;100.00;-9447.75;5111213;28;20188;-61
2023/03/04 00:50:29;;;;;;;36.50;27.33;;;;;;;7.49;100.00;-9131.50;5111630;28;20217;-60
2023/03/04 00:52:56;;;;;;;36.90;27.83;;;;;;;7.56;100.00;-8815.13;5111192;28;20184;-62
2023/03/04 00:55:23;;;;;;;39.50;27.03;;;;;;;7.59;100.00;-9449.56;5111160;28;20665;-61
2023/03/04 00:57:49;;;;;;;42.20;27.43;;;;;;;7.50;100.00;-9131.66;5111152;28;20198;-60
2023/03/04 01:00:17;;;;;;;38.50;26.53;;;;;;;7.37;100.00;-9764.28;5114177;28;20565;-60
2023/03/04 01:02:44;;;;;;;33.43;25.90;;;;;;;7.58;100.00;-10083.59;5114818;28;20198;-60
2023/03/04 01:05:11;;;;;;;39.20;27.20;;;;;;;7.48;100.00;-10399.31;5114752;28;20668;-60
2023/03/04 01:07:39;;;;;;;38.27;27.67;;;;;;;7.63;100.00;-10401.09;5114659;28;20190;-59
2023/03/04 01:10:08;;;;;;;47.77;28.47;;;;;;;7.58;100.00;-10083.59;5114898;28;20522;-60
2023/03/04 01:12:35;;;;;;;43.53;29.73;;;;;;;7.59;100.00;-10083.69;5114949;28;20274;-60
2023/03/04 01:15:02;;;;;;;41.63;30.03;;;;;;;7.57;100.00;-10400.41;5114792;28;20214;-60
2023/03/04 01:17:29;;;;;;;42.70;29.23;;;;;;;7.49;100.00;-10716.41;5114590;28;20270;-60
2023/03/04 01:19:56;;;;;;;45.53;29.83;;;;;;;7.61;100.00;-11034.84;5114949;28;20179;-61
2023/03/04 01:22:23;;;;;;;42.53;28.83;;;;;;;7.57;100.00;-10717.41;5114314;28;20187;-60
2023/03/04 01:24:51;;;;;;;40.50;28.50;;;;;;;7.54;100.00;-10717.03;5114815;28;20202;-60
2023/03/04 01:27:18;;;;;;;42.33;28.87;;;;;;;7.48;100.00;-10399.38;5114270;28;20194;-60
2023/03/04 01:29:44;;;;;;;42.30;28.80;;;;;;;7.10;100.00;-10394.88;5114610;28;20198;-61
2023/03/04 01:32:11;;;;;;;39.10;28.43;;;;;;;7.40;100.00;-10715.28;5114367;28;20278;-60
2023/03/04 01:34:38;;;;;;;42.10;29.00;;;;;;;7.41;100.00;-10398.56;5114087;28;20207;-60
2023/03/04 01:37:05;;;;;;;40.60;29.23;;;;;;;7.34;100.00;-10080.84;5114488;28;20187;-60
2023/03/04 01:39:32;;;;;;;40.33;28.27;;;;;;;7.32;100.00;-9763.78;5114392;28;20194;-60
2023/03/04 01:42:00;;;;;;;41.93;27.93;;;;;;;7.31;100.00;-9763.63;5113989;28;20180;-60
2023/03/04 01:44:27;;;;;;;37.70;27.17;;;;;;;7.41;100.00;-9764.72;5114327;28;20194;-60
2023/03/04 01:46:55;;;;;;;38.57;27.73;;;;;;;7.47;100.00;-9765.31;5113834;28;20188;-60
2023/03/04 01:49:23;;;;;;;39.07;28.43;;;;;;;7.41;100.00;-9447.75;5113979;28;20206;-61
2023/03/04 01:51:52;;;;;;;39.47;28.43;;;;;;;7.44;100.00;-9765.03;5114055;28;20195;-61
2023/03/04 01:54:20;;;;;;;42.53;29.20;;;;;;;7.54;100.00;-9766.13;5113816;28;20195;-61
2023/03/04 01:56:49;;;;;;;39.73;27.27;;;;;;;7.35;100.00;-9764.06;5113576;28;20230;-61
2023/03/04 01:59:19;;;;;;;38.60;28.13;;;;;;;7.48;100.00;-9765.47;5114044;28;20656;-61
2023/03/04 02:01:49;;;;;;;41.60;27.40;;;;;;;7.49;100.00;-9765.53;5113629;28;20194;-61
2023/03/04 02:04:17;;;;;;;37.60;27.97;;;;;;;7.51;100.00;-9765.81;5113693;28;20187;-60
2023/03/04 02:06:44;;;;;;;40.63;27.63;;;;;;;7.47;100.00;-10399.22;5113859;28;20180;-61
2023/03/04 02:09:12;;;;;;;40.57;28.27;;;;;;;7.50;100.00;-10399.56;5113455;28;20192;-62
2023/03/04 02:11:40;;;;;;;36.93;27.00;;;;;;;7.27;100.00;-10713.69;5112663;28;20293;-60
2023/03/04 02:14:07;;;;;;;42.37;28.03;;;;;;;7.48;100.00;-10716.28;5113648;28;20208;-61
2023/03/04 02:16:36;;;;;;;38.90;28.00;;;;;;;7.29;100.00;-10713.94;5113238;28;20210;-60
2023/03/04 02:19:07;;;;;;;37.30;26.83;;;;;;;7.29;100.00;-10713.94;5113693;28;20187;-60
2023/03/04 02:21:34;;;;;;;39.63;27.97;;;;;;;7.32;100.00;-10397.47;5113581;28;20565;-61
2023/03/04 02:24:14;;;;;;;37.67;26.87;;;;;;;7.51;100.00;-10399.75;5113161;28;20193;-61
2023/03/04 02:26:43;;;;;;;37.77;27.47;;;;;;;7.40;100.00;-10081.53;5113424;28;20673;-61
2023/03/04 02:29:11;;;;;;;39.27;27.47;;;;;;;7.41;100.00;-10398.56;5113454;28;20264;-60
2023/03/04 02:31:40;;;;;;;37.30;27.97;;;;;;;7.60;100.00;-10717.72;5113165;28;20182;-60
2023/03/04 02:34:12;;;;;;;42.37;27.57;;;;;;;7.72;100.00;-10719.25;5113020;28;20187;-61
2023/03/04 02:36:40;;;;;;;36.63;26.60;;;;;;;7.67;100.00;-10718.66;5112918;28;20203;-60
2023/03/04 02:39:13;;;;;;;37.87;26.90;;;;;;;7.83;100.00;-11037.63;5113182;28;20180;-61
2023/03/04 02:41:40;;;;;;;40.37;26.80;;;;;;;7.75;100.00;-11353.63;5112949;28;20187;-61
2023/03/04 02:44:16;;;;;;;37.07;26.40;;;;;;;7.74;100.00;-11987.28;5112760;28;20184;-61
2023/03/04 02:46:43;;;;;;;34.63;25.90;;;;;;;7.78;100.00;-12621.72;5113073;28;20187;-61
2023/03/04 02:49:10;;;;;;;36.70;24.20;;;;;;;7.65;100.00;-12936.41;5112804;28;20199;-60
2023/03/04 02:51:37;;;;;;;34.60;24.30;;;;;;;7.68;100.00;-13253.75;5112660;28;20187;-61
2023/03/04 02:54:04;;;;;;;35.33;25.23;;;;;;;7.72;100.00;-13571.06;5112896;28;20649;-61
2023/03/04 02:56:31;;;;;;;31.13;24.07;;;;;;;7.78;100.00;-13888.84;5112527;28;20594;-61
2023/03/04 02:58:58;;;;;;;32.27;24.10;;;;;;;7.74;100.00;-13888.22;5112481;28;20184;-61
2023/03/04 03:01:29;;;;;;;35.60;24.43;;;;;;;7.58;100.00;-13885.41;5112835;28;20210;-60
2023/03/04 03:03:56;;;;;;;35.47;24.50;;;;;;;7.62;100.00;-13886.13;5112724;28;20190;-60
2023/03/04 03:06:23;;;;;;;35.77;23.77;;;;;;;7.58;100.00;-13885.41;5112735;28;20184;-60
2023/03/04 03:08:50;;;;;;;32.33;24.63;;;;;;;7.34;100.00;-13564.75;5112336;28;20191;-60
2023/03/04 03:11:16;;;;;;;32.43;24.20;;;;;;;7.55;100.00;-13251.50;5112406;28;20550;-61
2023/03/04 03:13:43;;;;;;;34.13;24.87;;;;;;;7.35;100.00;-12931.69;5112189;28;20179;-62
2023/03/04 03:16:10;;;;;;;32.77;24.07;;;;;;;7.24;100.00;-12929.94;5112502;28;20607;-61
2023/03/04 03:18:39;;;;;;;31.17;23.87;;;;;;;7.55;100.00;-12618.16;5094554;28;20210;-61
2023/03/04 03:21:06;;;;;;;33.30;24.10;;;;;;;7.66;100.00;-12619.78;5112386;28;20626;-61
2023/03/04 03:23:33;;;;;;;30.50;23.33;;;;;;;7.53;100.00;-12617.88;5111741;28;20187;-59
2023/03/04 03:26:00;;;;;;;37.77;24.07;;;;;;;7.61;100.00;-12619.09;5112367;28;20642;-61
2023/03/04 03:28:26;;;;;;;33.37;23.87;;;;;;;7.80;100.00;-12622.03;5112065;28;20634;-60
2023/03/04 03:30:53;;;;;;;33.33;24.10;;;;;;;7.87;100.00;-12939.84;5112039;28;20179;-60
2023/03/04 03:33:20;;;;;;;32.10;23.70;;;;;;;7.83;100.00;-12939.31;5112018;28;20191;-61
2023/03/04 03:35:48;;;;;;;33.20;23.23;;;;;;;7.72;100.00;-13254.41;5112177;28;20570;-61
2023/03/04 03:38:15;;;;;;;32.93;24.07;;;;;;;7.71;100.00;-13570.91;5112267;28;20206;-60
2023/03/04 03:40:42;;;;;;;32.60;23.80;;;;;;;7.79;100.00;-13889.09;5111905;28;20195;-60
2023/03/04 03:43:09;;;;;;;30.63;23.83;;;;;;;7.92;100.00;-14208.00;5111963;28;20183;-60
2023/03/04 03:45:36;;;;;;;31.53;23.47;;;;;;;8.00;100.00;-14526.34;5111865;28;20183;-60
2023/03/04 03:48:03;;;;;;;34.67;25.00;;;;;;;8.04;100.00;-14527.09;5111856;28;20200;-61
2023/03/04 03:50:30;;;;;;;33.23;24.33;;;;;;;8.10;100.00;-14211.25;5112177;28;20195;-61
2023/03/04 03:52:58;;;;;;;30.47;23.67;;;;;;;8.06;100.00;-14210.53;5112076;28;20194;-61
2023/03/04 03:55:25;;;;;;;32.07;23.47;;;;;;;7.94;100.00;-13574.72;5111480;28;20233;-61
2023/03/04 03:57:52;;;;;;;31.80;24.03;;;;;;;7.93;100.00;-13891.38;5111752;28;20282;-60
2023/03/04 04:00:20;;;;;;;33.40;24.20;;;;;;;7.87;100.00;-14523.84;5111600;28;20187;-61
2023/03/04 04:02:47;;;;;;;34.33;24.43;;;;;;;8.07;100.00;-14844.34;5112153;28;20796;-60
2023/03/04 04:05:14;;;;;;;32.33;23.20;;;;;;;8.04;100.00;-14843.88;5111936;28;20638;-60
2023/03/04 04:07:41;;;;;;;32.17;23.07;;;;;;;8.14;100.00;-14528.84;5112072;28;20731;-61
2023/03/04 04:10:11;;;;;;;33.53;24.13;;;;;;;8.07;100.00;-13576.94;5111645;28;20183;-60
2023/03/04 04:12:38;;;;;;;31.33;23.87;;;;;;;7.96;100.00;-13575.06;5111835;28;20184;-61
2023/03/04 04:15:06;;;;;;;30.70;23.07;;;;;;;8.15;100.00;-13895.25;5111590;28;20232;-60
2023/03/04 04:17:33;;;;;;;38.60;24.73;;;;;;;8.13;100.00;-14211.88;5111418;28;20199;-60
2023/03/04 04:20:00;;;;;;;34.10;23.80;;;;;;;8.18;100.00;-14212.69;5111564;28;20179;-60
2023/03/04 04:22:27;;;;;;;31.87;23.40;;;;;;;8.16;100.00;-13895.50;5093453;28;20188;-60
2023/03/04 04:24:54;;;;;;;28.73;23.37;;;;;;;8.02;100.00;-13576.09;5111512;28;20193;-60
2023/03/04 04:27:22;;;;;;;31.77;24.83;;;;;;;8.14;100.00;-13578.22;5111402;28;20188;-61
2023/03/04 04:29:49;;;;;;;36.10;23.80;;;;;;;8.07;100.00;-13260.03;5111438;28;20184;-60
2023/03/04 04:32:16;;;;;;;32.80;25.13;;;;;;;8.07;100.00;-13576.94;5111861;28;20628;-60
2023/03/04 04:34:43;;;;;;;34.27;24.87;;;;;;;7.95;100.00;-13891.81;5113695;28;20554;-60
2023/03/04 04:37:10;;;;;;;31.60;24.50;;;;;;;8.04;100.00;-13893.41;5115185;28;20200;-60
2023/03/04 04:39:39;;;;;;;34.30;22.70;;;;;;;8.00;100.00;-13575.75;5115322;28;20191;-61
2023/03/04 04:42:06;;;;;;;31.40;23.23;;;;;;;8.01;100.00;-13892.88;5115252;28;20190;-60
2023/03/04 04:44:35;;;;;;;34.47;23.67;;;;;;;7.92;100.00;-14208.00;5115207;28;20194;-60
2023/03/04 04:47:01;;;;;;;40.00;24.57;;;;;;;7.92;100.00;-13891.22;5115167;28;20540;-61
2023/03/04 04:49:28;;;;;;;30.93;24.20;;;;;;;7.78;100.00;-14522.34;5115798;28;20195;-60
2023/03/04 04:51:55;;;;;;;36.03;24.77;;;;;;;7.80;100.00;-15155.94;5115336;28;20188;-61
2023/03/04 04:54:22;;;;;;;35.67;24.50;;;;;;;7.84;100.00;-15156.63;5115282;28;20588;-60
2023/03/04 04:56:49;;;;;;;31.77;23.83;;;;;;;7.87;100.00;-15157.31;5114736;28;20231;-60
2023/03/04 04:59:17;;;;;;;33.90;23.50;;;;;;;7.87;100.00;-15157.31;5114871;28;20183;-61
2023/03/04 05:01:45;;;;;;;38.13;25.10;;;;;;;7.74;100.00;-14521.59;5114881;28;20194;-60
2023/03/04 05:04:12;;;;;;;32.10;24.43;;;;;;;7.72;100.00;-14521.22;5115096;28;20267;-61
2023/03/04 05:06:39;;;;;;;39.77;24.93;;;;;;;7.85;100.00;-14206.75;5115080;28;20569;-60
2023/03/04 05:09:06;;;;;;;39.23;24.43;;;;;;;7.81;100.00;-14206.19;5114965;28;20630;-60
2023/03/04 05:11:33;;;;;;;39.97;26.50;;;;;;;7.85;100.00;-14206.75;5114694;28;20198;-60
2023/03/04 05:13:59;;;;;;;38.03;25.47;;;;;;;7.71;100.00;-13887.72;5114904;28;20183;-61
2023/03/04 05:16:26;;;;;;;38.37;26.70;;;;;;;7.83;100.00;-14206.47;5114459;28;20230;-61
2023/03/04 05:18:55;;;;;;;37.37;26.17;;;;;;;7.64;100.00;-13886.47;5114813;28;20562;-60
2023/03/04 05:21:21;;;;;;;39.23;26.10;;;;;;;7.80;100.00;-13889.28;5114873;28;20179;-61
2023/03/04 05:23:48;;;;;;;35.63;25.93;;;;;;;7.94;100.00;-14208.44;5114698;28;20504;-61
2023/03/04 05:26:18;;;;;;;38.67;27.77;;;;;;;7.96;100.00;-14208.81;5114613;28;20626;-61
2023/03/04 05:28:45;;;;;;;40.30;28.27;;;;;;;7.93;100.00;-14208.19;5114680;28;20262;-60
2023/03/04 05:31:12;;;;;;;38.40;26.90;;;;;;;7.91;100.00;-14207.91;5114638;28;20645;-60
2023/03/04 05:33:39;;;;;;;41.87;27.50;;;;;;;7.92;100.00;-13891.22;5114549;28;20199;-61
2023/03/04 05:36:10;;;;;;;40.27;27.77;;;;;;;7.92;100.00;-13891.22;5114445;28;20255;-61
2023/03/04 05:38:37;;;;;;;38.17;26.10;;;;;;;7.90;100.00;-14207.63;5114477;28;20630;-60
2023/03/04 05:41:05;;;;;;;37.93;27.47;;;;;;;8.04;100.00;-14527.00;5114439;28;20187;-61
2023/03/04 05:43:34;;;;;;;37.90;27.17;;;;;;;8.17;100.00;-14529.41;5114042;28;20218;-61
2023/03/04 05:46:02;;;;;;;41.87;27.03;;;;;;;8.24;100.00;-13896.81;5113769;28;20240;-60
2023/03/04 05:48:29;;;;;;;34.83;25.47;;;;;;;8.30;100.00;-13580.78;5114027;28;20179;-60
2023/03/04 05:50:58;;;;;;;34.67;25.53;;;;;;;8.32;100.00;-12947.06;5114240;28;20191;-60
2023/03/04 05:53:26;;;;;;;33.23;24.33;;;;;;;8.40;100.00;-13265.38;5113848;28;20218;-59
2023/03/04 05:55:53;;;;;;;34.20;23.90;;;;;;;8.38;100.00;-12947.94;5113579;28;20235;-60
2023/03/04 05:58:21;;;;;;;32.30;23.40;;;;;;;8.51;100.00;-11681.03;5113761;28;20184;-61
2023/03/04 06:00:48;;;;;;;37.50;24.47;;;;;;;8.48;100.00;-10728.50;5113762;28;20191;-60
2023/03/04 06:03:16;;;;;;;45.27;27.20;;;;;;;8.41;100.00;-9775.44;5113664;28;20187;-60
2023/03/04 06:05:43;;;;;;;41.97;26.73;;;;;;;8.42;100.00;-9458.06;5113910;28;20634;-60
2023/03/04 06:08:10;;;;;;;36.83;26.07;;;;;;;8.41;100.00;-9457.97;5113910;28;20190;-60
2023/03/04 06:10:40;;;;;;;42.77;26.10;;;;;;;8.45;100.00;-9140.84;5113807;28;20630;-61
2023/03/04 06:13:07;;;;;;;36.13;26.40;;;;;;;8.52;100.00;-8823.91;5113754;28;20210;-61
2023/03/04 06:15:34;;;;;;;38.47;27.40;;;;;;;8.57;100.00;-9459.63;5113447;28;20183;-59
2023/03/04 06:18:03;;;;;;;39.00;28.17;;;;;;;8.63;100.00;-9460.19;5113617;28;20538;-60
2023/03/04 06:20:30;;;;;;;40.90;28.83;;;;;;;8.65;100.00;-9460.38;5113695;28;20531;-59
2023/03/04 06:22:57;;;;;;;43.33;29.43;;;;;;;8.68;100.00;-8189.97;5113551;28;20558;-61
2023/03/04 06:25:25;;;;;;;42.83;30.23;;;;;;;8.64;100.00;-7236.31;5113519;28;20558;-61
2023/03/04 06:27:53;;;;;;;45.67;30.53;;;;;;;8.73;100.00;-6918.97;5113459;28;20628;-61
2023/03/04 06:30:21;;;;;;;49.77;32.10;;;;;;;8.73;100.00;-6283.09;5113120;28;20183;-61
2023/03/04 06:32:47;;;;;;;49.33;33.23;;;;;;;8.82;100.00;-6283.56;5113080;28;20188;-61
2023/03/04 06:35:15;;;;;;;49.20;33.07;;;;;;;8.85;100.00;-5965.69;5113355;28;20253;-61
2023/03/04 06:37:42;;;;;;;51.93;34.60;;;;;;;8.83;100.00;-5329.44;5112912;28;20208;-61
2023/03/04 06:40:11;;;;;;;54.93;34.90;;;;;;;8.80;100.00;-5011.25;5112860;28;20662;-60
2023/03/04 06:42:38;;;;;;;52.67;35.63;;;;;;;8.73;100.00;-5011.03;5113264;28;20183;-61
2023/03/04 06:45:08;;;;;;;51.13;35.77;;;;;;;8.74;100.00;-4692.94;5112896;28;20180;-60
2023/03/04 06:47:35;;;;;;;60.60;36.07;;;;;;;8.90;100.00;-3738.59;5112768;28;20195;-60
2023/03/04 06:50:02;;;;;;;58.03;38.40;;;;;;;9.03;100.00;-3738.72;5112645;28;20222;-61
2023/03/04 06:52:29;;;;;;;58.67;38.97;;;;;;;9.14;100.00;-3420.38;5113087;28;20684;-60
2023/03/04 06:54:56;;;;;;;66.63;40.57;;;;;;;9.15;100.00;-1509.06;5112489;28;20305;-60
2023/03/04 06:57:23;;;;;;;64.70;40.73;;;;;;;9.09;100.00;402.97;5112234;28;20233;-61
2023/03/04 06:59:49;;;;;;;53.53;36.17;;;;;;;9.04;100.00;721.47;5112532;28;20188;-60
2023/03/04 07:02:18;;;;;;;57.20;38.10;;;;;;;9.06;100.00;721.63;5112594;28;20233;-60
2023/03/04 07:04:45;;;;;;;48.33;34.23;;;;;;;9.05;100.00;1678.16;5112830;28;20622;-61
2023/03/04 07:07:15;;;;;;;50.70;31.77;;;;;;;8.86;100.00;1676.59;5112518;28;20180;-61
2023/03/04 07:09:42;;;;;;;45.50;31.40;;;;;;;9.11;100.00;2954.56;5112648;28;20192;-60
2023/03/04 07:12:09;;;;;;;46.10;32.13;;;;;;;9.08;100.00;3273.31;5112345;28;20187;-60
2023/03/04 07:14:35;;;;;;;42.53;31.20;;;;;;;9.13;100.00;3273.91;5112209;28;20217;-61
2023/03/04 07:17:02;;;;;;;42.70;29.57;;;;;;;9.16;100.00;5508.72;5112133;28;20207;-61
2023/03/04 07:19:31;;;;;;;41.80;28.97;;;;;;;9.18;100.00;7106.16;5112070;28;20191;-61
2023/03/04 07:21:57;;;;;;;40.47;27.67;;;;;;;9.25;100.00;7426.72;5112157;28;20179;-60
2023/03/04 07:24:24;;;;;;;38.17;28.80;;;;;;;9.21;100.00;9663.56;5112393;28;20642;-61
2023/03/04 07:26:51;;;;;;;37.70;27.47;;;;;;;9.30;100.00;12865.16;5112042;28;20187;-61
2023/03/04 07:29:18;;;;;;;37.73;28.80;;;;;;;9.37;100.00;12546.75;5112291;28;20571;-61
2023/03/04 07:31:45;;;;;;;44.47;28.00;;;;;;;9.36;100.00;15428.91;5112263;28;20183;-61
2023/03/04 07:34:13;;;;;;;36.60;26.57;;;;;;;9.43;100.00;17674.84;5112101;28;20184;-60
2023/03/04 07:36:43;;;;;;;39.07;27.23;;;;;;;9.34;100.00;18954.41;5094211;28;20207;-60
2023/03/04 07:39:12;;;;;;;42.03;28.07;;;;;;;9.56;100.00;17358.56;5111937;28;20187;-61
2023/03/04 07:41:39;;;;;;;42.70;27.17;;;;;;;9.61;100.00;16077.63;5111945;28;20201;-61
2023/03/04 07:44:07;;;;;;;37.00;26.03;;;;;;;9.75;100.00;21216.44;5112018;28;20183;-61
2023/03/04 07:46:34;;;;;;;39.97;25.37;;;;;;;9.86;100.00;24434.28;5111824;28;20187;-66
2023/03/04 07:49:01;;;;;;;34.37;24.67;;;;;;;10.06;100.00;29593.38;5112065;28;20221;-62
2023/03/04 07:51:28;;;;;;;35.70;25.13;;;;;;;10.14;100.00;35079.03;5112133;28;20530;-61
2023/03/04 07:53:59;;;;;;;35.70;24.90;;;;;;;10.12;100.00;39275.34;5093980;28;20507;-61
2023/03/04 07:56:29;;;;;;;38.97;24.57;;;;;;;10.26;100.00;40901.31;5093706;28;20221;-62
2023/03/04 07:58:56;;;;;;;35.43;24.00;;;;;;;10.43;100.00;49332.84;5112035;28;20184;-61
2023/03/04 08:01:25;;;;;;;31.93;24.13;;;;;;;10.45;100.00;61677.81;5111666;28;20286;-61
2023/03/04 08:03:52;;;;;;;31.83;23.13;;;;;;;10.59;100.00;62668.84;5111501;28;20227;-60
2023/03/04 08:06:21;;;;;;;31.83;22.17;;;;;;;10.58;100.00;64946.97;5111588;28;20183;-62
2023/03/04 08:08:49;;;;;;;49.40;23.17;;;;;;;10.74;100.00;68877.69;5114095;28;20626;-60
2023/03/04 08:11:19;;;;;;;36.77;23.07;;;;;;;10.80;100.00;75089.81;5116100;28;20652;-61
2023/03/04 08:13:47;;;;;;;39.07;21.90;;;;;;;10.92;100.00;94449.06;5115955;28;20265;-61
2023/03/04 08:16:15;;;;;;;32.40;21.50;;;;;;;11.19;100.00;138270.28;5115596;28;20195;-61
2023/03/04 08:18:43;;;;;;;35.57;21.23;;;;;;;11.43;100.00;146572.19;5115781;28;20766;-61
2023/03/04 08:21:10;;;;;;;34.67;21.57;;;;;;;11.89;100.00;149029.72;5097668;28;20187;-62
2023/03/04 08:23:37;;;;;;;32.53;20.80;;;;;;;12.44;100.00;149165.13;5116115;28;20184;-61
2023/03/04 08:26:09;;;;;;;25.10;19.50;;;;;;;13.07;100.00;149324.69;5115425;28;20244;-61
2023/03/04 08:28:37;;;;;;;35.63;21.53;;;;;;;12.95;100.00;149294.28;5115691;28;20198;-61
2023/03/04 08:31:04;;;;;;;70.33;25.53;;;;;;;12.51;100.00;149184.16;5115748;28;20561;-62
2023/03/04 08:33:31;;;;;;;33.50;22.87;;;;;;;13.25;100.00;149369.06;5115766;28;20194;-61
2023/03/04 08:35:59;;;;;;;25.27;22.03;;;;;;;13.46;100.00;149421.00;5115537;28;20566;-61
2023/03/04 08:38:26;;;;;;;38.73;24.20;;;;;;;13.23;100.00;149365.28;5115576;28;20577;-61
2023/03/04 08:40:53;;;;;;;49.93;24.37;;;;;;;13.28;100.00;149376.72;5115205;28;20187;-62
2023/03/04 08:43:20;;;;;;;22.53;19.77;;;;;;;12.77;100.00;149248.72;5115216;28;20187;-61
2023/03/04 08:45:49;;;;;;;25.27;18.80;;;;;;;12.70;100.00;149230.97;5115136;28;20179;-61
2023/03/04 08:48:16;;;;;;;40.10;23.20;;;;;;;12.82;100.00;149262.63;5115048;28;20179;-61
2023/03/04 08:50:44;;;;;;;33.67;20.70;;;;;;;12.92;100.00;149286.72;5115548;28;20205;-61
2023/03/04 08:53:11;;;;;;;43.00;22.27;;;;;;;12.96;100.00;149296.84;5115350;28;20187;-60
2023/03/04 08:55:41;;;;;;;28.27;21.23;;;;;;;13.04;100.00;149315.81;5114809;28;20326;-60
2023/03/04 08:58:09;;;;;;;21.80;19.40;;;;;;;13.36;100.00;149395.69;5115125;28;20219;-62
2023/03/04 09:00:38;;;;;;;28.77;20.60;;;;;;;13.15;100.00;149345.00;5115129;28;20237;-62
2023/03/04 09:03:06;;;;;;;29.53;20.60;;;;;;;13.45;100.00;149419.72;5114671;28;20209;-62
2023/03/04 09:05:33;;;;;;;25.13;20.60;;;;;;;13.43;100.00;149413.41;5115170;28;20527;-62
2023/03/04 09:08:00;;;;;;;25.63;20.23;;;;;;;13.50;100.00;149431.13;5114966;28;20183;-61
2023/03/04 09:10:27;;;;;;;28.03;20.73;;;;;;;13.51;100.00;149434.94;5114709;28;20195;-61
2023/03/04 09:12:54;;;;;;;28.07;21.23;;;;;;;13.70;100.00;149481.84;5114591;28;20194;-62
2023/03/04 09:15:21;;;;;;;27.30;21.93;;;;;;;13.56;100.00;149447.63;5114507;28;20180;-61
2023/03/04 09:17:48;;;;;;;36.80;21.77;;;;;;;13.71;100.00;149484.34;5114316;28;20275;-61
2023/03/04 09:20:16;;;;;;;24.17;20.07;;;;;;;13.92;100.00;149537.56;5114065;28;20183;-61
2023/03/04 09:22:45;;;;;;;23.57;18.27;;;;;;;13.88;100.00;149527.44;5114760;28;20535;-61
2023/03/04 09:25:14;;;;;;;21.10;18.87;;;;;;;13.70;100.00;149483.13;5114706;28;20311;-62
2023/03/04 09:27:41;;;;;;;22.97;18.70;;;;;;;14.25;100.00;149618.72;5114645;28;20703;-62
2023/03/04 09:30:10;;;;;;;25.03;19.57;;;;;;;14.84;100.00;149767.13;5114255;28;20187;-61
2023/03/04 09:32:39;;;;;;;21.00;18.83;;;;;;;15.61;100.00;149961.28;5114807;28;20610;-61
2023/03/04 09:35:07;;;;;;;26.27;20.00;;;;;;;16.41;100.00;150161.84;5114121;28;20188;-61
2023/03/04 09:37:35;;;;;;;24.17;19.87;;;;;;;16.85;100.00;150273.63;5114342;28;20207;-61
2023/03/04 09:40:02;;;;;;;20.47;18.47;;;;;;;16.64;100.00;150220.28;5114317;28;20661;-60
2023/03/04 09:42:35;;;;;;;23.77;18.10;;;;;;;17.11;100.00;150337.13;5114148;28;20187;-61
2023/03/04 09:45:03;;;;;;;19.23;17.27;;;;;;;17.20;100.00;150361.28;5114015;28;20198;-62
2023/03/04 09:47:31;;;;;;;20.07;18.23;;;;;;;17.61;100.00;150464.25;5113909;28;20180;-61
2023/03/04 09:50:01;;;;;;;19.13;17.43;;;;;;;18.12;100.00;150591.41;5113927;28;20199;-62
2023/03/04 09:52:44;;;;;;;28.07;19.57;;;;;;;18.05;100.00;150574.84;5114078;28;20298;-61
2023/03/04 09:55:21;;;;;;;20.70;16.70;;;;;;;17.97;100.00;150554.50;5113380;28;20231;-61
2023/03/04 09:57:53;;;;;;;15.83;14.03;;;;;;;18.89;100.00;150784.72;5113896;28;20597;-62
2023/03/04 10:00:22;;;;;;;11.87;11.00;;;;;;;19.14;99.83;150848.31;5113635;28;20626;-62
2023/03/04 10:03:05;;;;;;;13.80;11.60;;;;;;;18.89;94.66;150784.72;5113659;28;20183;-61
2023/03/04 10:05:34;;;;;;;11.13;10.50;;;;;;;17.50;100.00;150434.97;5113564;28;20205;-61
2023/03/04 10:08:25;;;;;;;13.07;11.97;;;;;;;17.82;100.00;150515.13;5113541;28;20195;-61
2023/03/04 10:10:54;;;;;;;24.73;13.77;;;;;;;18.44;100.00;150672.75;5113489;28;20196;-61
2023/03/04 10:13:37;;;;;;;15.30;14.00;;;;;;;18.11;100.00;150588.84;5114008;28;20529;-61
2023/03/04 10:16:09;;;;;;;22.53;14.57;;;;;;;18.46;100.00;150677.81;5113370;28;20295;-62
2023/03/04 10:18:39;;;;;;;16.23;14.73;;;;;;;17.89;100.00;150532.91;5113276;28;20290;-61
2023/03/04 10:21:14;;;;;;;19.60;16.80;;;;;;;18.35;100.00;150648.59;5113103;28;20266;-61
2023/03/04 10:23:43;;;;;;;18.60;16.60;;;;;;;18.83;100.00;150770.75;5113608;28;20550;-61
2023/03/04 10:26:14;;;;;;;18.37;16.87;;;;;;;19.28;97.75;150883.97;5113519;28;20187;-61
2023/03/04 10:28:41;;;;;;;24.07;18.67;;;;;;;18.20;100.00;150611.75;5113457;28;20268;-60
2023/03/04 10:31:15;;;;;;;20.20;18.17;;;;;;;18.76;100.00;150751.63;5112564;28;20175;-60
2023/03/04 10:33:42;;;;;;;23.17;18.57;;;;;;;19.70;91.45;150988.34;5112845;28;20194;-61
2023/03/04 10:36:33;;;;;;;24.33;18.90;;;;;;;20.41;88.41;151169.19;5113038;28;20199;-61
2023/03/04 10:39:05;;;;;;;24.23;17.85;;;;;;;20.08;90.79;151086.38;5113251;28;20230;-61
2023/03/04 10:41:33;;;;;;;15.17;13.77;;;;;;;20.00;85.32;151064.72;5113270;28;20634;-60
2023/03/04 10:44:05;;;;;;;12.40;11.18;;;;;;;20.39;82.67;151162.81;5112929;28;20176;-61
2023/03/04 10:46:32;;;;;;;10.43;9.70;;;;;;;19.35;90.55;150900.53;5112863;28;20190;-61
2023/03/04 10:48:59;;;;;;;10.93;8.90;;;;;;;19.47;91.86;150932.38;5112843;28;20196;-60
2023/03/04 10:51:28;;;;;;;11.77;10.80;;;;;;;18.54;92.54;150696.97;5113046;28;20188;-60
2023/03/04 10:53:58;;;;;;;12.33;9.90;;;;;;;19.41;93.85;150915.75;5112534;28;20180;-61
2023/03/04 10:56:35;;;;;;;11.70;10.57;;;;;;;19.52;91.39;150945.06;5112572;28;20235;-61
2023/03/04 10:59:29;;;;;;;10.97;9.93;;;;;;;20.39;89.73;151162.81;5112448;28;20213;-61
2023/03/04 11:01:56;;;;;;;9.95;9.45;;;;;;;20.33;83.12;151148.81;5112528;28;20188;-60
2023/03/04 11:04:25;;;;;;;8.83;8.23;;;;;;;19.41;89.88;150917.03;5112860;28;20550;-60
2023/03/04 11:06:52;;;;;;;13.45;10.25;;;;;;;20.00;89.09;151064.72;5112753;28;20192;-61
2023/03/04 11:09:24;;;;;;;10.50;9.30;;;;;;;20.38;86.28;151160.28;5112485;28;20186;-61
2023/03/04 11:11:55;;;;;;;12.03;11.03;;;;;;;18.45;96.57;150675.31;5112423;28;20191;-61
2023/03/04 11:14:27;;;;;;;12.47;11.10;;;;;;;18.89;98.59;150785.97;5112602;28;20642;-61